sensor_id;sensor_type;location;lat;lon;timestamp;temperature;humidity
68385;DHT22;55336;43.062;25.626;2022-10-22T00:01:21;2.50;99.90
68385;DHT22;55336;43.062;25.626;2022-10-22T00:03:49;2.50;99.90
68385;DHT22;55336;43.062;25.626;2022-10-22T00:06:15;2.50;99.90
68385;DHT22;55336;43.062;25.626;2022-10-22T00:08:41;2.50;99.90
68385;DHT22;55336;43.062;25.626;2022-10-22T00:11:13;2.50;99.90
68385;DHT22;55336;43.062;25.626;2022-10-22T00:13:40;2.50;99.90
68385;DHT22;55336;43.062;25.626;2022-10-22T00:16:07;2.50;99.90
68385;DHT22;55336;43.062;25.626;2022-10-22T00:18:33;2.50;99.90
68385;DHT22;55336;43.062;25.626;2022-10-22T00:20:59;2.50;99.90
68385;DHT22;55336;43.062;25.626;2022-10-22T00:23:25;2.50;99.90
68385;DHT22;55336;43.062;25.626;2022-10-22T00:25:52;2.40;99.90
68385;DHT22;55336;43.062;25.626;2022-10-22T00:28:18;2.50;99.90
68385;DHT22;55336;43.062;25.626;2022-10-22T00:30:47;2.40;99.90
68385;DHT22;55336;43.062;25.626;2022-10-22T00:33:13;2.40;99.90
68385;DHT22;55336;43.062;25.626;2022-10-22T00:35:39;2.40;99.90
68385;DHT22;55336;43.062;25.626;2022-10-22T00:38:05;2.40;99.90
68385;DHT22;55336;43.062;25.626;2022-10-22T00:40:33;2.40;99.90
68385;DHT22;55336;43.062;25.626;2022-10-22T00:43:18;2.30;99.90
68385;DHT22;55336;43.062;25.626;2022-10-22T00:45:46;2.30;99.90
68385;DHT22;55336;43.062;25.626;2022-10-22T00:48:20;2.30;99.90
68385;DHT22;55336;43.062;25.626;2022-10-22T00:50:48;2.20;99.90
68385;DHT22;55336;43.062;25.626;2022-10-22T00:53:27;2.20;99.90
68385;DHT22;55336;43.062;25.626;2022-10-22T00:55:54;2.20;99.90
68385;DHT22;55336;43.062;25.626;2022-10-22T00:58:25;2.20;99.90
68385;DHT22;55336;43.062;25.626;2022-10-22T01:00:52;2.20;99.90
68385;DHT22;55336;43.062;25.626;2022-10-22T01:03:19;2.10;99.90
68385;DHT22;55336;43.062;25.626;2022-10-22T01:05:53;2.20;99.90
68385;DHT22;55336;43.062;25.626;2022-10-22T01:14:03;2.10;99.90
68385;DHT22;55336;43.062;25.626;2022-10-22T01:28:21;2.10;99.90
68385;DHT22;55336;43.062;25.626;2022-10-22T01:30:52;2.10;99.90
68385;DHT22;55336;43.062;25.626;2022-10-22T01:33:22;2.10;99.90
68385;DHT22;55336;43.062;25.626;2022-10-22T01:35:49;2.10;99.90
68385;DHT22;55336;43.062;25.626;2022-10-22T01:38:20;2.10;99.90
68385;DHT22;55336;43.062;25.626;2022-10-22T01:40:47;2.10;99.90
68385;DHT22;55336;43.062;25.626;2022-10-22T01:43:16;2.10;99.90
68385;DHT22;55336;43.062;25.626;2022-10-22T01:45:46;2.10;99.90
68385;DHT22;55336;43.062;25.626;2022-10-22T01:56:30;1.90;99.90
68385;DHT22;55336;43.062;25.626;2022-10-22T02:02:11;1.90;99.90
68385;DHT22;55336;43.062;25.626;2022-10-22T02:05:15;1.90;99.90
68385;DHT22;55336;43.062;25.626;2022-10-22T02:07:47;1.90;99.90
68385;DHT22;55336;43.062;25.626;2022-10-22T02:10:15;1.90;99.90
68385;DHT22;55336;43.062;25.626;2022-10-22T02:12:43;1.90;99.90
68385;DHT22;55336;43.062;25.626;2022-10-22T02:15:11;1.90;99.90
68385;DHT22;55336;43.062;25.626;2022-10-22T02:17:39;1.80;99.90
68385;DHT22;55336;43.062;25.626;2022-10-22T02:20:28;1.80;99.90
68385;DHT22;55336;43.062;25.626;2022-10-22T02:23:03;1.90;99.90
68385;DHT22;55336;43.062;25.626;2022-10-22T02:25:41;1.90;99.90
68385;DHT22;55336;43.062;25.626;2022-10-22T02:28:28;1.80;99.90
68385;DHT22;55336;43.062;25.626;2022-10-22T02:31:08;1.80;99.90
68385;DHT22;55336;43.062;25.626;2022-10-22T02:33:42;1.80;99.90
68385;DHT22;55336;43.062;25.626;2022-10-22T02:36:10;1.90;99.90
68385;DHT22;55336;43.062;25.626;2022-10-22T02:38:37;1.80;99.90
68385;DHT22;55336;43.062;25.626;2022-10-22T02:41:05;1.80;99.90
68385;DHT22;55336;43.062;25.626;2022-10-22T02:43:49;1.80;99.90
68385;DHT22;55336;43.062;25.626;2022-10-22T02:46:15;1.70;99.90
68385;DHT22;55336;43.062;25.626;2022-10-22T02:48:41;1.70;99.90
68385;DHT22;55336;43.062;25.626;2022-10-22T02:51:07;1.70;99.90
68385;DHT22;55336;43.062;25.626;2022-10-22T02:53:33;1.70;99.90
68385;DHT22;55336;43.062;25.626;2022-10-22T02:55:59;1.70;99.90
68385;DHT22;55336;43.062;25.626;2022-10-22T02:58:26;1.70;99.90
68385;DHT22;55336;43.062;25.626;2022-10-22T03:00:52;1.70;99.90
68385;DHT22;55336;43.062;25.626;2022-10-22T03:03:21;1.70;99.90
68385;DHT22;55336;43.062;25.626;2022-10-22T03:05:50;1.70;99.90
68385;DHT22;55336;43.062;25.626;2022-10-22T03:08:26;1.70;99.90
68385;DHT22;55336;43.062;25.626;2022-10-22T03:10:54;1.70;99.90
68385;DHT22;55336;43.062;25.626;2022-10-22T03:13:23;1.70;99.90
68385;DHT22;55336;43.062;25.626;2022-10-22T03:15:50;1.70;99.90
68385;DHT22;55336;43.062;25.626;2022-10-22T03:18:16;1.70;99.90
68385;DHT22;55336;43.062;25.626;2022-10-22T03:20:42;1.70;99.90
68385;DHT22;55336;43.062;25.626;2022-10-22T03:23:10;1.70;99.90
68385;DHT22;55336;43.062;25.626;2022-10-22T03:25:39;1.70;99.90
68385;DHT22;55336;43.062;25.626;2022-10-22T03:28:08;1.70;99.90
68385;DHT22;55336;43.062;25.626;2022-10-22T03:30:35;1.70;99.90
68385;DHT22;55336;43.062;25.626;2022-10-22T03:33:02;1.70;99.90
68385;DHT22;55336;43.062;25.626;2022-10-22T03:35:32;1.70;99.90
68385;DHT22;55336;43.062;25.626;2022-10-22T03:38:01;1.70;99.90
68385;DHT22;55336;43.062;25.626;2022-10-22T03:40:30;1.80;99.90
68385;DHT22;55336;43.062;25.626;2022-10-22T03:42:57;1.80;99.90
68385;DHT22;55336;43.062;25.626;2022-10-22T03:45:23;1.80;99.90
68385;DHT22;55336;43.062;25.626;2022-10-22T03:47:49;1.80;99.90
68385;DHT22;55336;43.062;25.626;2022-10-22T03:50:15;1.80;99.90
68385;DHT22;55336;43.062;25.626;2022-10-22T03:52:41;1.80;99.90
68385;DHT22;55336;43.062;25.626;2022-10-22T03:55:14;1.70;99.90
68385;DHT22;55336;43.062;25.626;2022-10-22T03:57:42;1.70;99.90
68385;DHT22;55336;43.062;25.626;2022-10-22T04:00:14;1.80;99.90
68385;DHT22;55336;43.062;25.626;2022-10-22T04:02:40;1.80;99.90
68385;DHT22;55336;43.062;25.626;2022-10-22T04:05:06;1.80;99.90
68385;DHT22;55336;43.062;25.626;2022-10-22T04:07:33;1.80;99.90
68385;DHT22;55336;43.062;25.626;2022-10-22T04:09:59;1.80;99.90
68385;DHT22;55336;43.062;25.626;2022-10-22T04:12:25;1.80;99.90
68385;DHT22;55336;43.062;25.626;2022-10-22T04:14:51;1.80;99.90
68385;DHT22;55336;43.062;25.626;2022-10-22T04:17:17;1.80;99.90
68385;DHT22;55336;43.062;25.626;2022-10-22T04:19:43;1.80;99.90
68385;DHT22;55336;43.062;25.626;2022-10-22T04:22:09;1.80;99.90
68385;DHT22;55336;43.062;25.626;2022-10-22T04:24:35;1.90;99.90
68385;DHT22;55336;43.062;25.626;2022-10-22T04:27:04;1.90;99.90
68385;DHT22;55336;43.062;25.626;2022-10-22T04:29:30;1.90;99.90
68385;DHT22;55336;43.062;25.626;2022-10-22T04:31:59;1.90;99.90
68385;DHT22;55336;43.062;25.626;2022-10-22T04:34:28;1.90;99.90
68385;DHT22;55336;43.062;25.626;2022-10-22T04:36:57;1.90;99.90
68385;DHT22;55336;43.062;25.626;2022-10-22T04:39:23;1.90;99.90
68385;DHT22;55336;43.062;25.626;2022-10-22T04:41:49;1.90;99.90
68385;DHT22;55336;43.062;25.626;2022-10-22T04:44:23;2.00;99.90
68385;DHT22;55336;43.062;25.626;2022-10-22T04:46:52;2.00;99.90
68385;DHT22;55336;43.062;25.626;2022-10-22T04:49:18;1.50;99.90
68385;DHT22;55336;43.062;25.626;2022-10-22T04:51:44;2.00;99.90
68385;DHT22;55336;43.062;25.626;2022-10-22T04:54:10;2.00;99.90
68385;DHT22;55336;43.062;25.626;2022-10-22T04:56:36;2.10;99.90
68385;DHT22;55336;43.062;25.626;2022-10-22T04:59:05;2.10;99.90
68385;DHT22;55336;43.062;25.626;2022-10-22T05:01:36;2.10;99.90
68385;DHT22;55336;43.062;25.626;2022-10-22T05:04:04;2.20;99.90
68385;DHT22;55336;43.062;25.626;2022-10-22T05:06:35;2.20;99.90
68385;DHT22;55336;43.062;25.626;2022-10-22T05:09:05;2.30;99.90
68385;DHT22;55336;43.062;25.626;2022-10-22T05:11:34;2.30;99.90
68385;DHT22;55336;43.062;25.626;2022-10-22T05:14:05;2.50;99.90
68385;DHT22;55336;43.062;25.626;2022-10-22T05:16:33;2.60;99.90
68385;DHT22;55336;43.062;25.626;2022-10-22T05:19:04;2.70;99.90
68385;DHT22;55336;43.062;25.626;2022-10-22T05:21:30;2.90;99.90
68385;DHT22;55336;43.062;25.626;2022-10-22T05:23:57;3.10;99.90
68385;DHT22;55336;43.062;25.626;2022-10-22T05:26:27;3.20;99.90
68385;DHT22;55336;43.062;25.626;2022-10-22T05:28:56;3.30;99.90
68385;DHT22;55336;43.062;25.626;2022-10-22T05:31:24;3.50;99.90
68385;DHT22;55336;43.062;25.626;2022-10-22T05:33:53;3.70;99.90
68385;DHT22;55336;43.062;25.626;2022-10-22T05:36:24;3.70;99.90
68385;DHT22;55336;43.062;25.626;2022-10-22T05:38:51;3.90;99.90
68385;DHT22;55336;43.062;25.626;2022-10-22T05:41:19;4.10;99.90
68385;DHT22;55336;43.062;25.626;2022-10-22T05:43:49;4.30;99.90
68385;DHT22;55336;43.062;25.626;2022-10-22T05:46:18;4.50;99.90
68385;DHT22;55336;43.062;25.626;2022-10-22T05:48:52;4.70;99.90
68385;DHT22;55336;43.062;25.626;2022-10-22T05:51:19;4.80;99.90
68385;DHT22;55336;43.062;25.626;2022-10-22T05:53:49;5.10;99.90
68385;DHT22;55336;43.062;25.626;2022-10-22T05:56:15;5.40;99.90
68385;DHT22;55336;43.062;25.626;2022-10-22T05:58:45;5.90;99.90
68385;DHT22;55336;43.062;25.626;2022-10-22T06:03:42;6.70;99.90
68385;DHT22;55336;43.062;25.626;2022-10-22T06:06:20;7.20;99.90
68385;DHT22;55336;43.062;25.626;2022-10-22T06:08:49;7.60;99.90
68385;DHT22;55336;43.062;25.626;2022-10-22T06:11:18;8.00;99.90
68385;DHT22;55336;43.062;25.626;2022-10-22T06:13:45;8.40;99.90
68385;DHT22;55336;43.062;25.626;2022-10-22T06:16:14;8.90;99.90
68385;DHT22;55336;43.062;25.626;2022-10-22T06:18:48;9.50;99.90
68385;DHT22;55336;43.062;25.626;2022-10-22T06:21:15;10.10;99.90
68385;DHT22;55336;43.062;25.626;2022-10-22T06:23:42;10.20;99.90
68385;DHT22;55336;43.062;25.626;2022-10-22T06:26:12;10.30;99.90
68385;DHT22;55336;43.062;25.626;2022-10-22T06:28:41;10.10;99.90
68385;DHT22;55336;43.062;25.626;2022-10-22T06:31:28;10.10;99.90
68385;DHT22;55336;43.062;25.626;2022-10-22T06:34:05;10.60;99.90
68385;DHT22;55336;43.062;25.626;2022-10-22T06:36:31;11.20;99.90
68385;DHT22;55336;43.062;25.626;2022-10-22T06:39:01;11.70;99.90
68385;DHT22;55336;43.062;25.626;2022-10-22T06:41:27;12.30;99.90
68385;DHT22;55336;43.062;25.626;2022-10-22T06:43:56;12.70;99.90
68385;DHT22;55336;43.062;25.626;2022-10-22T06:46:35;13.40;99.90
68385;DHT22;55336;43.062;25.626;2022-10-22T06:49:02;13.70;99.90
68385;DHT22;55336;43.062;25.626;2022-10-22T06:51:31;13.70;99.90
68385;DHT22;55336;43.062;25.626;2022-10-22T06:54:13;13.80;99.90
68385;DHT22;55336;43.062;25.626;2022-10-22T06:56:45;13.10;99.90
68385;DHT22;55336;43.062;25.626;2022-10-22T06:59:13;13.30;99.90
68385;DHT22;55336;43.062;25.626;2022-10-22T07:01:39;13.80;99.90
68385;DHT22;55336;43.062;25.626;2022-10-22T07:04:05;14.20;99.90
68385;DHT22;55336;43.062;25.626;2022-10-22T07:06:41;14.00;99.90
68385;DHT22;55336;43.062;25.626;2022-10-22T07:09:07;14.00;99.90
68385;DHT22;55336;43.062;25.626;2022-10-22T07:11:41;14.00;99.90
68385;DHT22;55336;43.062;25.626;2022-10-22T07:14:12;14.00;99.90
68385;DHT22;55336;43.062;25.626;2022-10-22T07:16:44;14.10;99.90
68385;DHT22;55336;43.062;25.626;2022-10-22T07:19:20;14.10;99.90
68385;DHT22;55336;43.062;25.626;2022-10-22T07:21:50;14.20;99.90
68385;DHT22;55336;43.062;25.626;2022-10-22T07:24:16;14.40;99.90
68385;DHT22;55336;43.062;25.626;2022-10-22T07:26:50;14.50;99.90
68385;DHT22;55336;43.062;25.626;2022-10-22T07:29:33;14.40;99.90
68385;DHT22;55336;43.062;25.626;2022-10-22T07:32:08;14.50;99.90
68385;DHT22;55336;43.062;25.626;2022-10-22T07:34:39;14.80;99.90
68385;DHT22;55336;43.062;25.626;2022-10-22T07:37:08;14.60;98.50
68385;DHT22;55336;43.062;25.626;2022-10-22T07:39:35;14.40;99.90
68385;DHT22;55336;43.062;25.626;2022-10-22T07:42:01;14.40;99.90
68385;DHT22;55336;43.062;25.626;2022-10-22T07:44:28;14.80;99.60
68385;DHT22;55336;43.062;25.626;2022-10-22T07:46:54;15.20;99.40
68385;DHT22;55336;43.062;25.626;2022-10-22T07:49:20;15.80;94.10
68385;DHT22;55336;43.062;25.626;2022-10-22T07:51:46;16.10;92.20
68385;DHT22;55336;43.062;25.626;2022-10-22T07:54:12;16.30;88.60
68385;DHT22;55336;43.062;25.626;2022-10-22T07:56:49;16.50;87.00
68385;DHT22;55336;43.062;25.626;2022-10-22T07:59:15;16.70;88.00
68385;DHT22;55336;43.062;25.626;2022-10-22T08:01:41;16.90;86.70
68385;DHT22;55336;43.062;25.626;2022-10-22T08:04:13;17.30;80.90
68385;DHT22;55336;43.062;25.626;2022-10-22T08:06:40;17.80;78.80
68385;DHT22;55336;43.062;25.626;2022-10-22T08:09:09;17.00;80.20
68385;DHT22;55336;43.062;25.626;2022-10-22T08:11:35;17.20;80.70
68385;DHT22;55336;43.062;25.626;2022-10-22T08:14:08;17.60;77.60
68385;DHT22;55336;43.062;25.626;2022-10-22T08:16:34;18.10;74.80
68385;DHT22;55336;43.062;25.626;2022-10-22T08:19:01;18.30;74.70
68385;DHT22;55336;43.062;25.626;2022-10-22T08:21:39;18.40;71.60
68385;DHT22;55336;43.062;25.626;2022-10-22T08:24:08;18.80;69.90
68385;DHT22;55336;43.062;25.626;2022-10-22T08:26:37;19.10;70.00
68385;DHT22;55336;43.062;25.626;2022-10-22T08:29:06;19.60;66.90
68385;DHT22;55336;43.062;25.626;2022-10-22T08:31:34;20.00;65.60
68385;DHT22;55336;43.062;25.626;2022-10-22T08:34:04;20.20;61.30
68385;DHT22;55336;43.062;25.626;2022-10-22T08:36:31;20.30;60.10
68385;DHT22;55336;43.062;25.626;2022-10-22T08:38:58;20.30;58.80
68385;DHT22;55336;43.062;25.626;2022-10-22T08:41:25;20.20;58.60
68385;DHT22;55336;43.062;25.626;2022-10-22T08:47:11;20.20;57.20
68385;DHT22;55336;43.062;25.626;2022-10-22T08:49:39;20.20;57.80
68385;DHT22;55336;43.062;25.626;2022-10-22T08:52:15;20.30;58.50
68385;DHT22;55336;43.062;25.626;2022-10-22T08:59:47;20.50;58.60
68385;DHT22;55336;43.062;25.626;2022-10-22T09:04:46;20.50;58.60
68385;DHT22;55336;43.062;25.626;2022-10-22T09:07:15;20.50;55.20
68385;DHT22;55336;43.062;25.626;2022-10-22T09:09:45;20.70;55.80
68385;DHT22;55336;43.062;25.626;2022-10-22T09:12:17;20.70;56.80
68385;DHT22;55336;43.062;25.626;2022-10-22T09:14:50;20.80;58.20
68385;DHT22;55336;43.062;25.626;2022-10-22T09:20:44;21.00;52.60
68385;DHT22;55336;43.062;25.626;2022-10-22T09:23:16;21.30;53.30
68385;DHT22;55336;43.062;25.626;2022-10-22T09:25:46;21.50;55.60
68385;DHT22;55336;43.062;25.626;2022-10-22T09:28:13;22.20;50.60
68385;DHT22;55336;43.062;25.626;2022-10-22T09:30:40;22.90;47.70
68385;DHT22;55336;43.062;25.626;2022-10-22T09:35:42;24.20;45.20
68385;DHT22;55336;43.062;25.626;2022-10-22T09:38:10;24.80;43.30
68385;DHT22;55336;43.062;25.626;2022-10-22T09:40:44;25.30;39.40
68385;DHT22;55336;43.062;25.626;2022-10-22T09:43:13;25.90;38.90
68385;DHT22;55336;43.062;25.626;2022-10-22T09:45:54;26.20;38.00
68385;DHT22;55336;43.062;25.626;2022-10-22T09:48:40;25.40;38.00
68385;DHT22;55336;43.062;25.626;2022-10-22T09:51:23;26.40;36.60
68385;DHT22;55336;43.062;25.626;2022-10-22T09:53:58;26.80;33.80
68385;DHT22;55336;43.062;25.626;2022-10-22T09:56:38;27.20;33.20
68385;DHT22;55336;43.062;25.626;2022-10-22T09:59:24;27.30;32.10
68385;DHT22;55336;43.062;25.626;2022-10-22T10:02:08;27.80;30.80
68385;DHT22;55336;43.062;25.626;2022-10-22T10:04:51;27.50;30.90
68385;DHT22;55336;43.062;25.626;2022-10-22T10:07:35;27.30;30.10
68385;DHT22;55336;43.062;25.626;2022-10-22T10:10:18;26.70;31.10
68385;DHT22;55336;43.062;25.626;2022-10-22T10:12:59;25.80;36.40
68385;DHT22;55336;43.062;25.626;2022-10-22T10:21:34;26.90;31.80
68385;DHT22;55336;43.062;25.626;2022-10-22T10:27:07;27.80;31.00
68385;DHT22;55336;43.062;25.626;2022-10-22T10:30:15;28.60;29.50
68385;DHT22;55336;43.062;25.626;2022-10-22T10:33:14;27.90;28.80
68385;DHT22;55336;43.062;25.626;2022-10-22T10:38:56;27.20;27.00
68385;DHT22;55336;43.062;25.626;2022-10-22T10:54:01;27.90;26.30
68385;DHT22;55336;43.062;25.626;2022-10-22T11:05:41;26.90;28.00
68385;DHT22;55336;43.062;25.626;2022-10-22T11:14:20;26.90;28.10
68385;DHT22;55336;43.062;25.626;2022-10-22T11:17:02;27.40;27.20
68385;DHT22;55336;43.062;25.626;2022-10-22T11:19:40;27.80;27.00
68385;DHT22;55336;43.062;25.626;2022-10-22T11:22:25;28.10;26.40
68385;DHT22;55336;43.062;25.626;2022-10-22T11:25:23;28.00;25.80
68385;DHT22;55336;43.062;25.626;2022-10-22T11:28:04;27.90;25.50
68385;DHT22;55336;43.062;25.626;2022-10-22T11:30:35;28.20;25.50
68385;DHT22;55336;43.062;25.626;2022-10-22T11:33:09;27.90;24.70
68385;DHT22;55336;43.062;25.626;2022-10-22T11:35:43;28.30;23.90
68385;DHT22;55336;43.062;25.626;2022-10-22T11:38:15;29.00;25.30
68385;DHT22;55336;43.062;25.626;2022-10-22T11:40:56;29.10;23.60
68385;DHT22;55336;43.062;25.626;2022-10-22T11:43:35;29.40;22.50
68385;DHT22;55336;43.062;25.626;2022-10-22T11:46:33;29.30;21.90
68385;DHT22;55336;43.062;25.626;2022-10-22T11:49:24;29.30;20.80
68385;DHT22;55336;43.062;25.626;2022-10-22T11:55:44;29.60;20.00
68385;DHT22;55336;43.062;25.626;2022-10-22T12:08:50;29.40;20.30
68385;DHT22;55336;43.062;25.626;2022-10-22T12:11:46;28.60;21.10
68385;DHT22;55336;43.062;25.626;2022-10-22T12:14:20;27.50;22.40
68385;DHT22;55336;43.062;25.626;2022-10-22T12:17:07;26.90;22.10
68385;DHT22;55336;43.062;25.626;2022-10-22T12:19:54;26.80;25.90
68385;DHT22;55336;43.062;25.626;2022-10-22T12:22:29;26.70;26.80
68385;DHT22;55336;43.062;25.626;2022-10-22T12:25:00;26.70;27.60
68385;DHT22;55336;43.062;25.626;2022-10-22T12:27:36;26.40;27.10
68385;DHT22;55336;43.062;25.626;2022-10-22T12:30:24;26.10;28.80
68385;DHT22;55336;43.062;25.626;2022-10-22T12:33:07;26.10;29.10
68385;DHT22;55336;43.062;25.626;2022-10-22T12:35:46;25.40;33.60
68385;DHT22;55336;43.062;25.626;2022-10-22T12:38:22;25.30;32.90
68385;DHT22;55336;43.062;25.626;2022-10-22T12:40:50;25.40;31.20
68385;DHT22;55336;43.062;25.626;2022-10-22T12:43:29;25.40;32.10
68385;DHT22;55336;43.062;25.626;2022-10-22T12:45:58;25.70;33.70
68385;DHT22;55336;43.062;25.626;2022-10-22T12:48:27;25.80;29.40
68385;DHT22;55336;43.062;25.626;2022-10-22T12:50:58;25.90;28.10
68385;DHT22;55336;43.062;25.626;2022-10-22T12:53:36;25.80;26.70
68385;DHT22;55336;43.062;25.626;2022-10-22T12:56:15;25.40;28.20
68385;DHT22;55336;43.062;25.626;2022-10-22T12:58:47;25.40;32.00
68385;DHT22;55336;43.062;25.626;2022-10-22T13:01:15;25.90;29.80
68385;DHT22;55336;43.062;25.626;2022-10-22T13:03:50;26.00;29.50
68385;DHT22;55336;43.062;25.626;2022-10-22T13:06:34;25.60;31.30
68385;DHT22;55336;43.062;25.626;2022-10-22T13:09:12;25.50;31.20
68385;DHT22;55336;43.062;25.626;2022-10-22T13:11:46;25.50;32.90
68385;DHT22;55336;43.062;25.626;2022-10-22T13:14:24;25.70;32.70
68385;DHT22;55336;43.062;25.626;2022-10-22T13:19:59;25.50;33.10
68385;DHT22;55336;43.062;25.626;2022-10-22T13:22:55;25.20;29.50
68385;DHT22;55336;43.062;25.626;2022-10-22T13:25:33;25.10;30.30
68385;DHT22;55336;43.062;25.626;2022-10-22T13:28:22;25.00;31.40
68385;DHT22;55336;43.062;25.626;2022-10-22T13:31:10;24.90;36.20
68385;DHT22;55336;43.062;25.626;2022-10-22T13:33:47;24.90;36.60
68385;DHT22;55336;43.062;25.626;2022-10-22T13:36:21;25.40;34.40
68385;DHT22;55336;43.062;25.626;2022-10-22T13:38:48;24.80;37.00
68385;DHT22;55336;43.062;25.626;2022-10-22T13:41:29;25.00;36.90
68385;DHT22;55336;43.062;25.626;2022-10-22T13:44:00;25.00;36.80
68385;DHT22;55336;43.062;25.626;2022-10-22T13:46:29;24.80;36.00
68385;DHT22;55336;43.062;25.626;2022-10-22T13:48:56;24.60;35.70
68385;DHT22;55336;43.062;25.626;2022-10-22T13:51:31;25.00;33.40
68385;DHT22;55336;43.062;25.626;2022-10-22T13:53:58;25.40;35.00
68385;DHT22;55336;43.062;25.626;2022-10-22T13:56:26;25.70;32.00
68385;DHT22;55336;43.062;25.626;2022-10-22T13:58:52;26.00;30.10
68385;DHT22;55336;43.062;25.626;2022-10-22T14:01:24;26.20;29.30
68385;DHT22;55336;43.062;25.626;2022-10-22T14:03:56;26.20;29.50
68385;DHT22;55336;43.062;25.626;2022-10-22T14:06:31;26.40;29.20
68385;DHT22;55336;43.062;25.626;2022-10-22T14:09:00;26.40;30.00
68385;DHT22;55336;43.062;25.626;2022-10-22T14:11:27;26.10;30.40
68385;DHT22;55336;43.062;25.626;2022-10-22T14:13:55;26.20;31.40
68385;DHT22;55336;43.062;25.626;2022-10-22T14:16:24;26.00;30.50
68385;DHT22;55336;43.062;25.626;2022-10-22T14:18:50;26.10;31.40
68385;DHT22;55336;43.062;25.626;2022-10-22T14:21:20;26.10;30.70
68385;DHT22;55336;43.062;25.626;2022-10-22T14:23:50;26.10;32.30
68385;DHT22;55336;43.062;25.626;2022-10-22T14:26:28;25.70;30.30
68385;DHT22;55336;43.062;25.626;2022-10-22T14:28:59;25.70;31.10
68385;DHT22;55336;43.062;25.626;2022-10-22T14:31:31;25.10;31.90
68385;DHT22;55336;43.062;25.626;2022-10-22T14:34:03;25.00;32.20
68385;DHT22;55336;43.062;25.626;2022-10-22T14:36:38;24.80;32.90
68385;DHT22;55336;43.062;25.626;2022-10-22T14:39:08;24.80;33.50
68385;DHT22;55336;43.062;25.626;2022-10-22T14:41:33;24.50;33.60
68385;DHT22;55336;43.062;25.626;2022-10-22T14:44:01;24.40;33.90
68385;DHT22;55336;43.062;25.626;2022-10-22T14:46:27;24.10;34.80
68385;DHT22;55336;43.062;25.626;2022-10-22T14:48:58;23.70;36.10
68385;DHT22;55336;43.062;25.626;2022-10-22T14:51:24;23.40;36.70
68385;DHT22;55336;43.062;25.626;2022-10-22T14:53:50;23.10;37.50
68385;DHT22;55336;43.062;25.626;2022-10-22T14:56:19;22.80;38.20
68385;DHT22;55336;43.062;25.626;2022-10-22T14:58:50;22.60;38.80
68385;DHT22;55336;43.062;25.626;2022-10-22T15:01:22;22.40;38.90
68385;DHT22;55336;43.062;25.626;2022-10-22T15:03:52;22.20;39.30
68385;DHT22;55336;43.062;25.626;2022-10-22T15:06:27;22.00;40.60
68385;DHT22;55336;43.062;25.626;2022-10-22T15:08:53;21.90;40.10
68385;DHT22;55336;43.062;25.626;2022-10-22T15:11:22;21.90;40.30
68385;DHT22;55336;43.062;25.626;2022-10-22T15:13:47;21.80;40.30
68385;DHT22;55336;43.062;25.626;2022-10-22T15:16:16;21.70;41.20
68385;DHT22;55336;43.062;25.626;2022-10-22T15:18:48;21.60;42.60
68385;DHT22;55336;43.062;25.626;2022-10-22T15:21:19;21.10;43.30
68385;DHT22;55336;43.062;25.626;2022-10-22T15:23:45;21.10;43.80
68385;DHT22;55336;43.062;25.626;2022-10-22T15:26:21;21.00;43.90
68385;DHT22;55336;43.062;25.626;2022-10-22T15:28:57;21.00;43.40
68385;DHT22;55336;43.062;25.626;2022-10-22T15:32:01;20.90;44.10
68385;DHT22;55336;43.062;25.626;2022-10-22T15:34:32;20.80;44.20
68385;DHT22;55336;43.062;25.626;2022-10-22T15:37:15;20.60;44.90
68385;DHT22;55336;43.062;25.626;2022-10-22T15:39:41;20.50;45.00
68385;DHT22;55336;43.062;25.626;2022-10-22T15:42:08;20.40;46.00
68385;DHT22;55336;43.062;25.626;2022-10-22T15:44:34;20.40;45.10
68385;DHT22;55336;43.062;25.626;2022-10-22T15:47:02;20.30;46.40
68385;DHT22;55336;43.062;25.626;2022-10-22T15:49:29;20.20;48.20
68385;DHT22;55336;43.062;25.626;2022-10-22T15:51:56;20.00;46.60
68385;DHT22;55336;43.062;25.626;2022-10-22T15:54:26;19.90;48.10
68385;DHT22;55336;43.062;25.626;2022-10-22T15:56:53;19.90;47.30
68385;DHT22;55336;43.062;25.626;2022-10-22T15:59:23;19.60;47.50
68385;DHT22;55336;43.062;25.626;2022-10-22T16:01:52;19.80;47.80
68385;DHT22;55336;43.062;25.626;2022-10-22T16:04:26;19.70;48.50
68385;DHT22;55336;43.062;25.626;2022-10-22T16:06:56;19.70;48.90
68385;DHT22;55336;43.062;25.626;2022-10-22T16:09:24;19.60;48.60
68385;DHT22;55336;43.062;25.626;2022-10-22T16:11:51;19.60;50.10
68385;DHT22;55336;43.062;25.626;2022-10-22T16:14:19;19.40;51.70
68385;DHT22;55336;43.062;25.626;2022-10-22T16:16:53;19.40;49.80
68385;DHT22;55336;43.062;25.626;2022-10-22T16:19:28;19.30;51.80
68385;DHT22;55336;43.062;25.626;2022-10-22T16:21:58;19.20;51.50
68385;DHT22;55336;43.062;25.626;2022-10-22T16:24:26;19.00;53.00
68385;DHT22;55336;43.062;25.626;2022-10-22T16:26:55;18.80;53.20
68385;DHT22;55336;43.062;25.626;2022-10-22T16:29:21;18.70;54.80
68385;DHT22;55336;43.062;25.626;2022-10-22T16:31:47;17.80;55.50
68385;DHT22;55336;43.062;25.626;2022-10-22T16:34:13;18.30;56.10
68385;DHT22;55336;43.062;25.626;2022-10-22T16:36:40;18.20;56.50
68385;DHT22;55336;43.062;25.626;2022-10-22T16:39:07;18.00;57.40
68385;DHT22;55336;43.062;25.626;2022-10-22T16:41:34;17.90;58.80
68385;DHT22;55336;43.062;25.626;2022-10-22T16:44:05;17.80;59.60
68385;DHT22;55336;43.062;25.626;2022-10-22T16:46:37;17.60;61.10
68385;DHT22;55336;43.062;25.626;2022-10-22T16:49:06;17.60;61.20
68385;DHT22;55336;43.062;25.626;2022-10-22T16:51:38;17.40;62.50
68385;DHT22;55336;43.062;25.626;2022-10-22T16:54:05;17.40;63.20
68385;DHT22;55336;43.062;25.626;2022-10-22T16:56:31;17.20;64.20
68385;DHT22;55336;43.062;25.626;2022-10-22T16:59:04;17.10;63.30
68385;DHT22;55336;43.062;25.626;2022-10-22T17:01:31;17.10;65.20
68385;DHT22;55336;43.062;25.626;2022-10-22T17:04:00;16.90;64.80
68385;DHT22;55336;43.062;25.626;2022-10-22T17:06:27;16.90;65.80
68385;DHT22;55336;43.062;25.626;2022-10-22T17:08:53;16.80;66.40
68385;DHT22;55336;43.062;25.626;2022-10-22T17:11:21;16.70;66.50
68385;DHT22;55336;43.062;25.626;2022-10-22T17:13:50;16.50;67.30
68385;DHT22;55336;43.062;25.626;2022-10-22T17:16:22;16.40;66.30
68385;DHT22;55336;43.062;25.626;2022-10-22T17:18:49;16.40;68.20
68385;DHT22;55336;43.062;25.626;2022-10-22T17:21:18;16.30;68.20
68385;DHT22;55336;43.062;25.626;2022-10-22T17:23:45;16.20;68.30
68385;DHT22;55336;43.062;25.626;2022-10-22T17:26:17;16.10;68.80
68385;DHT22;55336;43.062;25.626;2022-10-22T17:28:45;16.00;70.20
68385;DHT22;55336;43.062;25.626;2022-10-22T17:31:19;15.90;70.80
68385;DHT22;55336;43.062;25.626;2022-10-22T17:33:46;15.90;70.40